sensor_id;sensor_type;location;lat;lon;timestamp;pressure;altitude;pressure_sealevel;temperature;humidity
3917;BME280;1973;50.518;7.318;2022-09-25T00:00:59;100591.31;;;14.25;100.00
3917;BME280;1973;50.518;7.318;2022-09-25T00:03:28;100587.69;;;14.25;100.00
3917;BME280;1973;50.518;7.318;2022-09-25T00:06:06;100596.84;;;14.25;100.00
3917;BME280;1973;50.518;7.318;2022-09-25T00:08:34;100601.53;;;14.25;100.00
3917;BME280;1973;50.518;7.318;2022-09-25T00:11:06;100599.63;;;14.25;100.00
3917;BME280;1973;50.518;7.318;2022-09-25T00:13:33;100596.84;;;14.25;100.00
3917;BME280;1973;50.518;7.318;2022-09-25T00:15:59;100599.34;;;14.27;100.00
3917;BME280;1973;50.518;7.318;2022-09-25T00:18:26;100595.28;;;14.29;100.00
3917;BME280;1973;50.518;7.318;2022-09-25T00:21:12;100592.50;;;14.29;100.00
3917;BME280;1973;50.518;7.318;2022-09-25T00:23:41;100596.69;;;14.32;100.00
3917;BME280;1973;50.518;7.318;2022-09-25T00:26:10;100605.59;;;14.34;100.00
3917;BME280;1973;50.518;7.318;2022-09-25T00:28:38;100599.00;;;14.35;100.00
3917;BME280;1973;50.518;7.318;2022-09-25T00:31:07;100600.47;;;14.37;100.00
3917;BME280;1973;50.518;7.318;2022-09-25T00:33:35;100597.44;;;14.39;100.00
3917;BME280;1973;50.518;7.318;2022-09-25T00:36:08;100601.63;;;14.41;100.00
3917;BME280;1973;50.518;7.318;2022-09-25T00:38:36;100597.56;;;14.44;100.00
3917;BME280;1973;50.518;7.318;2022-09-25T00:41:05;100592.84;;;14.44;100.00
3917;BME280;1973;50.518;7.318;2022-09-25T00:48:59;100592.69;;;14.51;100.00
3917;BME280;1973;50.518;7.318;2022-09-25T00:51:31;100584.13;;;14.52;100.00
3917;BME280;1973;50.518;7.318;2022-09-25T00:54:02;100590.50;;;14.53;100.00
3917;BME280;1973;50.518;7.318;2022-09-25T00:56:36;100580.88;;;14.55;100.00
3917;BME280;1973;50.518;7.318;2022-09-25T00:59:09;100580.63;;;14.57;100.00
3917;BME280;1973;50.518;7.318;2022-09-25T01:01:37;100581.69;;;14.56;100.00
3917;BME280;1973;50.518;7.318;2022-09-25T01:04:04;100581.47;;;14.57;100.00
3917;BME280;1973;50.518;7.318;2022-09-25T01:06:32;100578.34;;;14.54;100.00
3917;BME280;1973;50.518;7.318;2022-09-25T01:09:00;100579.44;;;14.53;100.00
3917;BME280;1973;50.518;7.318;2022-09-25T01:11:26;100578.84;;;14.51;100.00
3917;BME280;1973;50.518;7.318;2022-09-25T01:13:56;100573.31;;;14.51;100.00
3917;BME280;1973;50.518;7.318;2022-09-25T01:16:30;100578.00;;;14.50;100.00
3917;BME280;1973;50.518;7.318;2022-09-25T01:19:14;100577.66;;;14.47;100.00
3917;BME280;1973;50.518;7.318;2022-09-25T01:21:51;100576.81;;;14.46;100.00
3917;BME280;1973;50.518;7.318;2022-09-25T01:24:36;100578.41;;;14.42;100.00
3917;BME280;1973;50.518;7.318;2022-09-25T01:30:05;100577.19;;;14.38;100.00
3917;BME280;1973;50.518;7.318;2022-09-25T01:35:04;100572.50;;;14.39;100.00
3917;BME280;1973;50.518;7.318;2022-09-25T01:42:51;100566.38;;;14.37;100.00
3917;BME280;1973;50.518;7.318;2022-09-25T01:45:23;100566.81;;;14.34;100.00
3917;BME280;1973;50.518;7.318;2022-09-25T01:47:51;100562.38;;;14.33;100.00
3917;BME280;1973;50.518;7.318;2022-09-25T01:51:25;100571.53;;;14.33;100.00
3917;BME280;1973;50.518;7.318;2022-09-25T01:53:25;100566.72;;;14.29;100.00
3917;BME280;1973;50.518;7.318;2022-09-25T01:55:58;100567.81;;;14.28;100.00
3917;BME280;1973;50.518;7.318;2022-09-25T01:58:30;100578.03;;;14.27;100.00
3917;BME280;1973;50.518;7.318;2022-09-25T02:01:13;100576.63;;;14.25;100.00
3917;BME280;1973;50.518;7.318;2022-09-25T02:03:46;100575.19;;;14.22;100.00
3917;BME280;1973;50.518;7.318;2022-09-25T02:06:17;100572.66;;;14.21;100.00
3917;BME280;1973;50.518;7.318;2022-09-25T02:08:50;100573.16;;;14.18;100.00
3917;BME280;1973;50.518;7.318;2022-09-25T02:11:19;100563.16;;;14.17;100.00
3917;BME280;1973;50.518;7.318;2022-09-25T02:14:13;100557.25;;;14.13;100.00
3917;BME280;1973;50.518;7.318;2022-09-25T02:16:40;100565.22;;;14.09;100.00
3917;BME280;1973;50.518;7.318;2022-09-25T02:19:10;100566.28;;;14.08;100.00
3917;BME280;1973;50.518;7.318;2022-09-25T02:22:09;100570.16;;;14.07;100.00
3917;BME280;1973;50.518;7.318;2022-09-25T02:25:10;100566.28;;;14.08;100.00
3917;BME280;1973;50.518;7.318;2022-09-25T02:27:38;100573.75;;;14.08;100.00
3917;BME280;1973;50.518;7.318;2022-09-25T02:30:04;100571.00;;;14.08;100.00
3917;BME280;1973;50.518;7.318;2022-09-25T02:32:31;100571.38;;;14.11;100.00
3917;BME280;1973;50.518;7.318;2022-09-25T02:34:59;100573.88;;;14.13;100.00
3917;BME280;1973;50.518;7.318;2022-09-25T02:37:26;100576.16;;;14.16;100.00
3917;BME280;1973;50.518;7.318;2022-09-25T02:39:55;100583.97;;;14.19;100.00
3917;BME280;1973;50.518;7.318;2022-09-25T02:45:11;100576.38;;;14.26;100.00
3917;BME280;1973;50.518;7.318;2022-09-25T02:48:22;100581.44;;;14.29;100.00
3917;BME280;1973;50.518;7.318;2022-09-25T02:53:51;100582.38;;;14.35;100.00
3917;BME280;1973;50.518;7.318;2022-09-25T02:56:34;100579.13;;;14.38;100.00
3917;BME280;1973;50.518;7.318;2022-09-25T02:59:13;100573.59;;;14.38;100.00
3917;BME280;1973;50.518;7.318;2022-09-25T03:01:45;100570.81;;;14.38;100.00
3917;BME280;1973;50.518;7.318;2022-09-25T03:04:15;100568.03;;;14.38;100.00
3917;BME280;1973;50.518;7.318;2022-09-25T03:06:43;100573.00;;;14.36;100.00
3917;BME280;1973;50.518;7.318;2022-09-25T03:09:10;100569.00;;;14.32;100.00
3917;BME280;1973;50.518;7.318;2022-09-25T03:11:39;100570.09;;;14.31;100.00
3917;BME280;1973;50.518;7.318;2022-09-25T03:14:09;100573.34;;;14.28;100.00
3917;BME280;1973;50.518;7.318;2022-09-25T03:19:02;100588.78;;;14.24;100.00
3917;BME280;1973;50.518;7.318;2022-09-25T03:21:29;100584.56;;;14.21;100.00
3917;BME280;1973;50.518;7.318;2022-09-25T03:23:55;100582.88;;;14.20;100.00
3917;BME280;1973;50.518;7.318;2022-09-25T03:26:23;100577.34;;;14.20;100.00
3917;BME280;1973;50.518;7.318;2022-09-25T03:28:51;100581.19;;;14.19;100.00
3917;BME280;1973;50.518;7.318;2022-09-25T03:31:18;100571.44;;;14.17;100.00
3917;BME280;1973;50.518;7.318;2022-09-25T03:33:45;100579.75;;;14.17;100.00
3917;BME280;1973;50.518;7.318;2022-09-25T03:36:13;100578.06;;;14.15;100.00
3917;BME280;1973;50.518;7.318;2022-09-25T03:38:40;100572.78;;;14.14;100.00
3917;BME280;1973;50.518;7.318;2022-09-25T03:41:09;100581.34;;;14.12;100.00
3917;BME280;1973;50.518;7.318;2022-09-25T03:43:37;100572.44;;;14.10;100.00
3917;BME280;1973;50.518;7.318;2022-09-25T03:46:09;100574.38;;;14.10;100.00
3917;BME280;1973;50.518;7.318;2022-09-25T03:48:36;100575.22;;;14.10;100.00
3917;BME280;1973;50.518;7.318;2022-09-25T03:51:03;100577.97;;;14.10;100.00
3917;BME280;1973;50.518;7.318;2022-09-25T03:53:31;100573.88;;;14.13;100.00
3917;BME280;1973;50.518;7.318;2022-09-25T03:55:59;100574.50;;;14.15;100.00
3917;BME280;1973;50.518;7.318;2022-09-25T03:58:26;100577.00;;;14.17;100.00
3917;BME280;1973;50.518;7.318;2022-09-25T04:00:52;100578.69;;;14.18;100.00
3917;BME280;1973;50.518;7.318;2022-09-25T04:03:25;100573.16;;;14.18;100.00
3917;BME280;1973;50.518;7.318;2022-09-25T04:05:55;100571.44;;;14.17;100.00
3917;BME280;1973;50.518;7.318;2022-09-25T04:08:22;100575.31;;;14.15;100.00
3917;BME280;1973;50.518;7.318;2022-09-25T04:10:52;100574.72;;;14.13;100.00
3917;BME280;1973;50.518;7.318;2022-09-25T04:13:22;100583.03;;;14.13;100.00
3917;BME280;1973;50.518;7.318;2022-09-25T04:15:48;100585.56;;;14.15;100.00
3917;BME280;1973;50.518;7.318;2022-09-25T04:18:15;100587.00;;;14.18;100.00
3917;BME280;1973;50.518;7.318;2022-09-25T04:20:41;100580.38;;;14.19;100.00
3917;BME280;1973;50.518;7.318;2022-09-25T04:23:08;100584.81;;;14.20;100.00
3917;BME280;1973;50.518;7.318;2022-09-25T04:25:34;100587.56;;;14.20;100.00
3917;BME280;1973;50.518;7.318;2022-09-25T04:28:01;100580.97;;;14.21;100.00
3917;BME280;1973;50.518;7.318;2022-09-25T04:30:28;100589.88;;;14.23;100.00
3917;BME280;1973;50.518;7.318;2022-09-25T04:32:54;100578.81;;;14.23;100.00
3917;BME280;1973;50.518;7.318;2022-09-25T04:35:40;100581.56;;;14.23;100.00
3917;BME280;1973;50.518;7.318;2022-09-25T04:38:07;100580.22;;;14.25;100.00
3917;BME280;1973;50.518;7.318;2022-09-25T04:40:35;100582.75;;;14.27;100.00
3917;BME280;1973;50.518;7.318;2022-09-25T04:43:04;100589.97;;;14.28;100.00
3917;BME280;1973;50.518;7.318;2022-09-25T04:45:34;100585.03;;;14.30;100.00
3917;BME280;1973;50.518;7.318;2022-09-25T04:48:02;100595.00;;;14.31;100.00
3917;BME280;1973;50.518;7.318;2022-09-25T04:50:30;100595.00;;;14.31;100.00
3917;BME280;1973;50.518;7.318;2022-09-25T04:52:57;100594.16;;;14.30;100.00
3917;BME280;1973;50.518;7.318;2022-09-25T04:55:24;100596.69;;;14.32;100.00
3917;BME280;1973;50.518;7.318;2022-09-25T04:57:51;100599.25;;;14.33;100.00
3917;BME280;1973;50.518;7.318;2022-09-25T05:00:30;100599.00;;;14.35;100.00
3917;BME280;1973;50.518;7.318;2022-09-25T05:02:57;100601.78;;;14.35;100.00
3917;BME280;1973;50.518;7.318;2022-09-25T05:05:24;100605.59;;;14.34;100.00
3917;BME280;1973;50.518;7.318;2022-09-25T05:07:57;100599.84;;;14.35;100.00
3917;BME280;1973;50.518;7.318;2022-09-25T05:10:27;100604.78;;;14.33;100.00
3917;BME280;1973;50.518;7.318;2022-09-25T05:12:55;100598.88;;;14.30;100.00
3917;BME280;1973;50.518;7.318;2022-09-25T05:15:21;100601.88;;;14.28;100.00
3917;BME280;1973;50.518;7.318;2022-09-25T05:17:48;100598.41;;;14.21;100.00
3917;BME280;1973;50.518;7.318;2022-09-25T05:20:15;100594.81;;;14.21;100.00
3917;BME280;1973;50.518;7.318;2022-09-25T05:22:42;100600.84;;;14.18;100.00
3917;BME280;1973;50.518;7.318;2022-09-25T05:25:09;100609.03;;;14.12;100.00
3917;BME280;1973;50.518;7.318;2022-09-25T05:27:36;100604.59;;;14.11;100.00
3917;BME280;1973;50.518;7.318;2022-09-25T05:30:02;100607.34;;;14.11;100.00
3917;BME280;1973;50.518;7.318;2022-09-25T05:32:29;100612.63;;;14.13;100.00
3917;BME280;1973;50.518;7.318;2022-09-25T05:34:56;100614.31;;;14.14;100.00
3917;BME280;1973;50.518;7.318;2022-09-25T05:37:22;100614.56;;;14.12;100.00
3917;BME280;1973;50.518;7.318;2022-09-25T05:39:49;100613.72;;;14.12;100.00
3917;BME280;1973;50.518;7.318;2022-09-25T05:42:15;100612.91;;;14.11;100.00
3917;BME280;1973;50.518;7.318;2022-09-25T05:44:44;100626.75;;;14.11;100.00
3917;BME280;1973;50.518;7.318;2022-09-25T05:47:11;100617.59;;;14.11;100.00
3917;BME280;1973;50.518;7.318;2022-09-25T05:49:37;100612.78;;;14.06;100.00
3917;BME280;1973;50.518;7.318;2022-09-25T05:52:03;100620.47;;;14.04;100.00
3917;BME280;1973;50.518;7.318;2022-09-25T05:54:30;100624.34;;;14.03;100.00
3917;BME280;1973;50.518;7.318;2022-09-25T05:56:56;100622.88;;;14.01;100.00
3917;BME280;1973;50.518;7.318;2022-09-25T05:59:23;100624.56;;;14.02;100.00
3917;BME280;1973;50.518;7.318;2022-09-25T06:01:50;100625.41;;;14.02;100.00
3917;BME280;1973;50.518;7.318;2022-09-25T06:04:16;100623.72;;;14.01;100.00
3917;BME280;1973;50.518;7.318;2022-09-25T06:06:43;100628.41;;;14.01;100.00
3917;BME280;1973;50.518;7.318;2022-09-25T06:09:09;100634.22;;;13.99;100.00
3917;BME280;1973;50.518;7.318;2022-09-25T06:11:35;100622.06;;;14.00;100.00
3917;BME280;1973;50.518;7.318;2022-09-25T06:14:02;100632.03;;;14.01;100.00
3917;BME280;1973;50.518;7.318;2022-09-25T06:16:29;100634.22;;;13.99;100.00
3917;BME280;1973;50.518;7.318;2022-09-25T06:18:56;100640.81;;;13.98;100.00
3917;BME280;1973;50.518;7.318;2022-09-25T06:21:22;100643.00;;;13.96;100.00
3917;BME280;1973;50.518;7.318;2022-09-25T06:23:49;100640.81;;;13.98;100.00
3917;BME280;1973;50.518;7.318;2022-09-25T06:26:15;100642.25;;;14.01;100.00
3917;BME280;1973;50.518;7.318;2022-09-25T06:28:42;100642.50;;;13.99;100.00
3917;BME280;1973;50.518;7.318;2022-09-25T06:31:08;100638.66;;;14.00;100.00
3917;BME280;1973;50.518;7.318;2022-09-25T06:33:35;100641.44;;;14.00;100.00
3917;BME280;1973;50.518;7.318;2022-09-25T06:36:04;100647.34;;;14.04;100.00
3917;BME280;1973;50.518;7.318;2022-09-25T06:38:30;100646.22;;;14.05;100.00
3917;BME280;1973;50.518;7.318;2022-09-25T06:40:59;100653.81;;;14.09;100.00
3917;BME280;1973;50.518;7.318;2022-09-25T06:43:26;100648.28;;;14.09;100.00
3917;BME280;1973;50.518;7.318;2022-09-25T06:45:53;100644.91;;;14.07;100.00
3917;BME280;1973;50.518;7.318;2022-09-25T06:48:19;100650.44;;;14.07;100.00
3917;BME280;1973;50.518;7.318;2022-09-25T06:50:51;100651.53;;;14.06;100.00
3917;BME280;1973;50.518;7.318;2022-09-25T06:53:20;100647.06;;;14.05;100.00
3917;BME280;1973;50.518;7.318;2022-09-25T06:55:47;100651.41;;;14.01;100.00
3917;BME280;1973;50.518;7.318;2022-09-25T06:58:18;100645.88;;;14.01;100.00
3917;BME280;1973;50.518;7.318;2022-09-25T07:00:46;100651.66;;;14.00;100.00
3917;BME280;1973;50.518;7.318;2022-09-25T07:03:13;100658.03;;;14.00;100.00
3917;BME280;1973;50.518;7.318;2022-09-25T07:05:59;100657.44;;;13.98;100.00
3917;BME280;1973;50.518;7.318;2022-09-25T07:08:26;100651.31;;;13.96;100.00
3917;BME280;1973;50.518;7.318;2022-09-25T07:10:54;100656.34;;;13.99;100.00
3917;BME280;1973;50.518;7.318;2022-09-25T07:13:24;100653.31;;;14.01;100.00
3917;BME280;1973;50.518;7.318;2022-09-25T07:15:52;100659.47;;;14.03;100.00
3917;BME280;1973;50.518;7.318;2022-09-25T07:18:20;100660.81;;;14.00;100.00
3917;BME280;1973;50.518;7.318;2022-09-25T07:20:48;100666.34;;;14.00;100.00
3917;BME280;1973;50.518;7.318;2022-09-25T07:23:16;100662.47;;;14.01;100.00
3917;BME280;1973;50.518;7.318;2022-09-25T07:25:43;100661.63;;;14.01;100.00
3917;BME280;1973;50.518;7.318;2022-09-25T07:28:10;100664.66;;;13.99;100.00
3917;BME280;1973;50.518;7.318;2022-09-25T07:30:40;100669.34;;;13.99;100.00
3917;BME280;1973;50.518;7.318;2022-09-25T07:33:07;100659.97;;;14.00;100.00
3917;BME280;1973;50.518;7.318;2022-09-25T07:35:35;100666.34;;;14.00;100.00
3917;BME280;1973;50.518;7.318;2022-09-25T07:38:02;100662.72;;;14.00;100.00
3917;BME280;1973;50.518;7.318;2022-09-25T07:40:29;100667.28;;;13.94;100.00
3917;BME280;1973;50.518;7.318;2022-09-25T07:43:01;100673.44;;;13.96;100.00
3917;BME280;1973;50.518;7.318;2022-09-25T07:45:28;100669.47;;;13.92;100.00
3917;BME280;1973;50.518;7.318;2022-09-25T07:47:58;100671.13;;;13.93;100.00
3917;BME280;1973;50.518;7.318;2022-09-25T07:50:30;100675.22;;;13.91;100.00
3917;BME280;1973;50.518;7.318;2022-09-25T07:52:57;100672.25;;;13.92;100.00
3917;BME280;1973;50.518;7.318;2022-09-25T07:55:24;100672.25;;;13.92;100.00
3917;BME280;1973;50.518;7.318;2022-09-25T07:57:50;100666.94;;;13.91;100.00
3917;BME280;1973;50.518;7.318;2022-09-25T08:00:17;100674.38;;;13.90;100.00
3917;BME280;1973;50.518;7.318;2022-09-25T08:02:43;100675.84;;;13.93;100.00
3917;BME280;1973;50.518;7.318;2022-09-25T08:05:10;100678.38;;;13.94;100.00
3917;BME280;1973;50.518;7.318;2022-09-25T08:07:36;100677.88;;;13.97;100.00
3917;BME280;1973;50.518;7.318;2022-09-25T08:10:03;100680.66;;;13.97;100.00
3917;BME280;1973;50.518;7.318;2022-09-25T08:12:30;100684.88;;;14.00;100.00
3917;BME280;1973;50.518;7.318;2022-09-25T08:14:56;100695.09;;;13.99;100.00
3917;BME280;1973;50.518;7.318;2022-09-25T08:17:23;100680.66;;;13.97;100.00
3917;BME280;1973;50.518;7.318;2022-09-25T08:19:49;100701.59;;;13.93;100.00
3917;BME280;1973;50.518;7.318;2022-09-25T08:22:16;100694.97;;;13.94;100.00
3917;BME280;1973;50.518;7.318;2022-09-25T08:24:42;100693.41;;;13.98;100.00
3917;BME280;1973;50.518;7.318;2022-09-25T08:27:08;100694.03;;;14.00;100.00
3917;BME280;1973;50.518;7.318;2022-09-25T08:29:35;100690.16;;;14.01;100.00
3917;BME280;1973;50.518;7.318;2022-09-25T08:32:01;100694.84;;;14.01;100.00
3917;BME280;1973;50.518;7.318;2022-09-25T08:34:28;100697.97;;;14.04;100.00
3917;BME280;1973;50.518;7.318;2022-09-25T08:37:07;100697.97;;;14.04;100.00
3917;BME280;1973;50.518;7.318;2022-09-25T08:39:33;100687.75;;;14.05;100.00
3917;BME280;1973;50.518;7.318;2022-09-25T08:41:59;100696.41;;;14.08;100.00
3917;BME280;1973;50.518;7.318;2022-09-25T08:44:40;100704.72;;;14.08;100.00
3917;BME280;1973;50.518;7.318;2022-09-25T08:47:27;100699.19;;;14.08;100.00
3917;BME280;1973;50.518;7.318;2022-09-25T08:50:24;100699.81;;;14.10;100.00
3917;BME280;1973;50.518;7.318;2022-09-25T08:52:59;100701.09;;;14.08;100.00
3917;BME280;1973;50.518;7.318;2022-09-25T08:55:29;100714.94;;;14.08;100.00
3917;BME280;1973;50.518;7.318;2022-09-25T08:58:37;100712.19;;;14.08;100.00
3917;BME280;1973;50.518;7.318;2022-09-25T09:01:15;100714.94;;;14.08;100.00
3917;BME280;1973;50.518;7.318;2022-09-25T09:04:03;100706.28;;;14.04;100.00
3917;BME280;1973;50.518;7.318;2022-09-25T09:06:33;100716.06;;;14.07;100.00
3917;BME280;1973;50.518;7.318;2022-09-25T09:09:10;100719.66;;;14.07;100.00
3917;BME280;1973;50.518;7.318;2022-09-25T09:11:46;100716.41;;;14.10;100.00
3917;BME280;1973;50.518;7.318;2022-09-25T09:14:19;100714.22;;;14.12;100.00
3917;BME280;1973;50.518;7.318;2022-09-25T09:19:25;100713.75;;;14.15;100.00
3917;BME280;1973;50.518;7.318;2022-09-25T09:22:12;100710.16;;;14.15;100.00
3917;BME280;1973;50.518;7.318;2022-09-25T09:25:03;100715.44;;;14.17;100.00
3917;BME280;1973;50.518;7.318;2022-09-25T09:30:24;100706.41;;;14.21;100.00
3917;BME280;1973;50.518;7.318;2022-09-25T09:38:58;100704.59;;;14.38;100.00
3917;BME280;1973;50.518;7.318;2022-09-25T09:44:10;100704.97;;;14.42;100.00
3917;BME280;1973;50.518;7.318;2022-09-25T09:47:16;100708.94;;;14.46;100.00
3917;BME280;1973;50.518;7.318;2022-09-25T09:49:42;100707.97;;;14.52;100.00
3917;BME280;1973;50.518;7.318;2022-09-25T09:52:20;100706.38;;;14.56;100.00
3917;BME280;1973;50.518;7.318;2022-09-25T09:54:58;100705.06;;;14.58;100.00
3917;BME280;1973;50.518;7.318;2022-09-25T09:57:31;100706.00;;;14.64;100.00
3917;BME280;1973;50.518;7.318;2022-09-25T10:00:05;100711.91;;;14.68;100.00
3917;BME280;1973;50.518;7.318;2022-09-25T10:02:39;100712.75;;;14.68;100.00
3917;BME280;1973;50.518;7.318;2022-09-25T10:05:22;100705.50;;;14.67;100.00
3917;BME280;1973;50.518;7.318;2022-09-25T10:07:50;100710.31;;;14.72;100.00
3917;BME280;1973;50.518;7.318;2022-09-25T10:10:18;100710.44;;;14.77;100.00
3917;BME280;1973;50.518;7.318;2022-09-25T10:12:49;100711.63;;;14.81;100.00
3917;BME280;1973;50.518;7.318;2022-09-25T10:15:27;100702.81;;;14.84;100.00
3917;BME280;1973;50.518;7.318;2022-09-25T10:17:57;100705.94;;;14.87;100.00
3917;BME280;1973;50.518;7.318;2022-09-25T10:20:32;100702.28;;;14.98;100.00
3917;BME280;1973;50.518;7.318;2022-09-25T10:23:03;100693.66;;;15.11;100.00
3917;BME280;1973;50.518;7.318;2022-09-25T10:25:38;100698.31;;;15.23;100.00
3917;BME280;1973;50.518;7.318;2022-09-25T10:28:32;100698.41;;;15.28;100.00
3917;BME280;1973;50.518;7.318;2022-09-25T10:31:02;100694.50;;;15.40;100.00
3917;BME280;1973;50.518;7.318;2022-09-25T10:33:31;100696.84;;;15.48;100.00
3917;BME280;1973;50.518;7.318;2022-09-25T10:35:58;100693.47;;;15.58;100.00
3917;BME280;1973;50.518;7.318;2022-09-25T10:38:29;100694.72;;;15.67;100.00
3917;BME280;1973;50.518;7.318;2022-09-25T10:41:03;100705.50;;;15.80;100.00
3917;BME280;1973;50.518;7.318;2022-09-25T10:43:31;100692.84;;;15.89;100.00
3917;BME280;1973;50.518;7.318;2022-09-25T10:46:33;100700.19;;;15.95;100.00
3917;BME280;1973;50.518;7.318;2022-09-25T10:49:21;100703.69;;;16.07;100.00
3917;BME280;1973;50.518;7.318;2022-09-25T10:52:09;100699.66;;;16.15;100.00
3917;BME280;1973;50.518;7.318;2022-09-25T10:54:36;100706.13;;;16.21;100.00
3917;BME280;1973;50.518;7.318;2022-09-25T10:57:30;100705.38;;;16.25;100.00
3917;BME280;1973;50.518;7.318;2022-09-25T11:00:02;100702.94;;;16.29;100.00
3917;BME280;1973;50.518;7.318;2022-09-25T11:02:36;100699.03;;;16.30;100.00
3917;BME280;1973;50.518;7.318;2022-09-25T11:05:12;100698.97;;;16.25;100.00
3917;BME280;1973;50.518;7.318;2022-09-25T11:07:49;100707.84;;;16.22;100.00
3917;BME280;1973;50.518;7.318;2022-09-25T11:10:25;100701.09;;;16.18;100.00
3917;BME280;1973;50.518;7.318;2022-09-25T11:12:53;100699.75;;;16.20;100.00
3917;BME280;1973;50.518;7.318;2022-09-25T11:15:22;100702.28;;;16.22;100.00
3917;BME280;1973;50.518;7.318;2022-09-25T11:17:51;100699.50;;;16.22;100.00
3917;BME280;1973;50.518;7.318;2022-09-25T11:28:15;100702.84;;;16.24;100.00
3917;BME280;1973;50.518;7.318;2022-09-25T11:30:48;100696.72;;;16.22;100.00
3917;BME280;1973;50.518;7.318;2022-09-25T11:35:51;100693.94;;;16.22;100.00
3917;BME280;1973;50.518;7.318;2022-09-25T11:38:47;100690.03;;;16.23;100.00
3917;BME280;1973;50.518;7.318;2022-09-25T11:41:41;100685.28;;;16.18;100.00
3917;BME280;1973;50.518;7.318;2022-09-25T11:46:59;100684.00;;;16.09;100.00
3917;BME280;1973;50.518;7.318;2022-09-25T11:49:31;100683.25;;;16.14;100.00
3917;BME280;1973;50.518;7.318;2022-09-25T12:00:34;100678.47;;;16.09;100.00
3917;BME280;1973;50.518;7.318;2022-09-25T12:08:44;100675.44;;;16.11;100.00
3917;BME280;1973;50.518;7.318;2022-09-25T12:11:32;100671.88;;;16.15;100.00
3917;BME280;1973;50.518;7.318;2022-09-25T12:20:31;100655.25;;;16.37;100.00
3917;BME280;1973;50.518;7.318;2022-09-25T12:23:05;100662.13;;;16.51;100.00
3917;BME280;1973;50.518;7.318;2022-09-25T12:25:48;100658.72;;;16.66;100.00
3917;BME280;1973;50.518;7.318;2022-09-25T12:28:34;100654.13;;;16.76;100.00
3917;BME280;1973;50.518;7.318;2022-09-25T12:33:54;100645.44;;;16.94;100.00
3917;BME280;1973;50.518;7.318;2022-09-25T12:36:27;100644.97;;;17.02;100.00
3917;BME280;1973;50.518;7.318;2022-09-25T12:39:34;100642.50;;;17.06;100.00
3917;BME280;1973;50.518;7.318;2022-09-25T12:42:10;100641.19;;;17.14;100.00
3917;BME280;1973;50.518;7.318;2022-09-25T12:44:58;100639.81;;;17.16;100.00
3917;BME280;1973;50.518;7.318;2022-09-25T12:47:41;100642.06;;;17.19;100.00
3917;BME280;1973;50.518;7.318;2022-09-25T12:50:24;100641.22;;;17.19;100.00
3917;BME280;1973;50.518;7.318;2022-09-25T12:53:00;100636.81;;;17.23;100.00
3917;BME280;1973;50.518;7.318;2022-09-25T12:55:37;100625.16;;;17.26;100.00
3917;BME280;1973;50.518;7.318;2022-09-25T12:58:21;100619.59;;;17.26;100.00
3917;BME280;1973;50.518;7.318;2022-09-25T13:00:56;100620.19;;;17.28;100.00
3917;BME280;1973;50.518;7.318;2022-09-25T13:09:28;100607.72;;;17.35;100.00
3917;BME280;1973;50.518;7.318;2022-09-25T13:12:08;100606.41;;;17.43;100.00
3917;BME280;1973;50.518;7.318;2022-09-25T13:14:44;100607.06;;;17.55;100.00
3917;BME280;1973;50.518;7.318;2022-09-25T13:17:12;100601.06;;;17.68;100.00
3917;BME280;1973;50.518;7.318;2022-09-25T13:19:41;100595.56;;;17.78;100.00
3917;BME280;1973;50.518;7.318;2022-09-25T13:22:20;100600.44;;;17.98;100.00
3917;BME280;1973;50.518;7.318;2022-09-25T13:25:04;100597.03;;;18.43;91.93
3917;BME280;1973;50.518;7.318;2022-09-25T13:27:44;100586.06;;;19.04;94.34
3917;BME280;1973;50.518;7.318;2022-09-25T13:30:25;100574.41;;;19.57;70.34
3917;BME280;1973;50.518;7.318;2022-09-25T13:32:55;100566.50;;;20.10;88.21
3917;BME280;1973;50.518;7.318;2022-09-25T13:35:24;100555.69;;;20.57;84.94
3917;BME280;1973;50.518;7.318;2022-09-25T13:37:54;100552.16;;;20.85;66.95
3917;BME280;1973;50.518;7.318;2022-09-25T13:40:26;100554.78;;;21.16;59.41
3917;BME280;1973;50.518;7.318;2022-09-25T13:43:19;100562.84;;;21.22;52.36
3917;BME280;1973;50.518;7.318;2022-09-25T13:48:49;100548.94;;;21.46;57.22
3917;BME280;1973;50.518;7.318;2022-09-25T13:54:05;100542.13;;;21.57;51.43
3917;BME280;1973;50.518;7.318;2022-09-25T13:56:49;100541.03;;;21.53;51.55
3917;BME280;1973;50.518;7.318;2022-09-25T14:06:45;100537.53;;;20.99;50.52
3917;BME280;1973;50.518;7.318;2022-09-25T14:09:15;100529.00;;;21.19;51.17
3917;BME280;1973;50.518;7.318;2022-09-25T14:15:40;100519.47;;;21.77;46.06
3917;BME280;1973;50.518;7.318;2022-09-25T14:17:41;100525.25;;;21.91;46.96
3917;BME280;1973;50.518;7.318;2022-09-25T14:20:27;100515.59;;;22.02;45.29
3917;BME280;1973;50.518;7.318;2022-09-25T14:22:58;100512.69;;;21.83;45.43
3917;BME280;1973;50.518;7.318;2022-09-25T14:25:36;100518.50;;;21.63;43.68
3917;BME280;1973;50.518;7.318;2022-09-25T14:28:18;100523.75;;;21.70;44.94
3917;BME280;1973;50.518;7.318;2022-09-25T14:31:13;100512.16;;;21.81;43.52
3917;BME280;1973;50.518;7.318;2022-09-25T14:34:00;100507.47;;;22.01;44.20
3917;BME280;1973;50.518;7.318;2022-09-25T14:37:04;100513.78;;;22.35;43.83
3917;BME280;1973;50.518;7.318;2022-09-25T14:39:56;100505.28;;;22.59;42.48
3917;BME280;1973;50.518;7.318;2022-09-25T14:42:44;100501.41;;;22.78;42.63
3917;BME280;1973;50.518;7.318;2022-09-25T14:48:14;100499.06;;;23.18;42.61
3917;BME280;1973;50.518;7.318;2022-09-25T14:50:45;100497.03;;;23.23;45.20
3917;BME280;1973;50.518;7.318;2022-09-25T14:53:24;100506.19;;;23.29;42.22
3917;BME280;1973;50.518;7.318;2022-09-25T14:55:54;100503.56;;;23.51;45.06
3917;BME280;1973;50.518;7.318;2022-09-25T14:58:25;100501.53;;;23.70;44.60
3917;BME280;1973;50.518;7.318;2022-09-25T15:00:58;100496.66;;;23.90;43.52
3917;BME280;1973;50.518;7.318;2022-09-25T15:03:29;100488.13;;;24.08;42.90
3917;BME280;1973;50.518;7.318;2022-09-25T15:05:59;100488.03;;;24.13;42.85
3917;BME280;1973;50.518;7.318;2022-09-25T15:08:36;100492.94;;;24.35;40.63
3917;BME280;1973;50.518;7.318;2022-09-25T15:11:12;100492.16;;;24.43;39.66